createdAt,value
2018-04-01T00:00:32.186Z,26.10
2018-04-01T00:01:32.360Z,27.00
2018-04-01T00:02:32.540Z,24.90
2018-04-01T00:03:32.719Z,26.30
2018-04-01T00:04:32.897Z,25.80
2018-04-01T00:05:33.087Z,26.00
2018-04-01T00:06:33.284Z,26.70
2018-04-01T00:07:33.476Z,27.00
2018-04-01T00:08:33.662Z,30.10
2018-04-01T00:09:33.860Z,28.00
2018-04-01T00:10:36.212Z,27.50
2018-04-01T00:11:34.194Z,25.90
2018-04-01T00:12:34.367Z,28.60
2018-04-01T00:13:34.546Z,28.80
2018-04-01T00:14:34.727Z,29.50
2018-04-01T00:15:34.922Z,29.30
2018-04-01T00:16:35.114Z,28.60
2018-04-01T00:17:35.290Z,28.70
2018-04-01T00:18:35.467Z,27.80
2018-04-01T00:19:35.655Z,28.20
2018-04-01T00:20:35.827Z,29.00
2018-04-01T00:21:36.013Z,30.20
2018-04-01T00:22:36.192Z,30.10
2018-04-01T00:23:36.371Z,29.10
2018-04-01T00:24:36.542Z,31.10
2018-04-01T00:25:36.724Z,30.80
2018-04-01T00:26:36.908Z,30.70
2018-04-01T00:27:37.088Z,31.70
2018-04-01T00:28:37.255Z,30.80
2018-04-01T00:29:37.435Z,30.00
2018-04-01T00:30:37.630Z,28.20
2018-04-01T00:31:37.810Z,28.50
2018-04-01T00:32:37.989Z,29.00
2018-04-01T00:33:38.169Z,27.90
2018-04-01T00:34:38.351Z,30.50
2018-04-01T00:35:38.527Z,30.50
2018-04-01T00:36:38.704Z,28.80
2018-04-01T00:37:38.882Z,29.90
2018-04-01T00:38:39.059Z,30.30
2018-04-01T00:39:39.240Z,29.30
2018-04-01T00:40:39.416Z,30.40
2018-04-01T00:41:39.594Z,30.10
2018-04-01T00:42:39.784Z,28.70
2018-04-01T00:43:39.971Z,30.00
2018-04-01T00:44:40.150Z,28.90
2018-04-01T00:45:40.333Z,30.40
2018-04-01T00:46:40.512Z,29.80
2018-04-01T00:47:40.727Z,29.80
2018-04-01T00:48:44.599Z,30.70
2018-04-01T00:49:41.054Z,30.60
2018-04-01T00:50:41.221Z,31.60
2018-04-01T00:51:42.782Z,32.50
2018-04-01T00:52:43.099Z,29.70
2018-04-01T00:53:44.181Z,29.50
2018-04-01T00:54:41.927Z,31.60
2018-04-01T00:55:42.036Z,34.00
2018-04-01T00:56:42.208Z,33.20
2018-04-01T00:57:42.381Z,32.30
2018-04-01T00:58:42.561Z,31.20
2018-04-01T00:59:42.740Z,31.70
2018-04-01T01:00:42.921Z,29.90
2018-04-01T01:01:43.102Z,30.30
2018-04-01T01:02:43.278Z,29.20
2018-04-01T01:03:43.457Z,30.60
2018-04-01T01:04:43.630Z,30.90
2018-04-01T01:05:43.815Z,30.30
2018-04-01T01:06:43.998Z,29.80
2018-04-01T01:07:44.166Z,30.60
2018-04-01T01:08:44.345Z,30.10
2018-04-01T01:09:44.526Z,29.90
2018-04-01T01:10:44.709Z,28.10
2018-04-01T01:11:44.892Z,29.60
2018-04-01T01:12:45.073Z,30.70
2018-04-01T01:13:45.255Z,29.80
2018-04-01T01:14:45.426Z,29.70
2018-04-01T01:15:45.596Z,28.60
2018-04-01T01:16:45.775Z,28.80
2018-04-01T01:17:45.952Z,27.50
2018-04-01T01:18:46.137Z,28.80
2018-04-01T01:19:46.308Z,29.50
2018-04-01T01:20:46.489Z,29.50
2018-04-01T01:21:46.668Z,28.70
2018-04-01T01:22:46.848Z,28.60
2018-04-01T01:23:47.021Z,28.60
2018-04-01T01:24:47.196Z,29.10
2018-04-01T01:25:47.374Z,28.00
2018-04-01T01:26:47.556Z,28.60
2018-04-01T01:27:47.734Z,27.70
2018-04-01T01:28:47.914Z,29.20
2018-04-01T01:29:48.092Z,28.80
2018-04-01T01:30:48.266Z,28.60
2018-04-01T01:31:48.439Z,28.30
2018-04-01T01:32:48.624Z,30.40
2018-04-01T01:33:48.799Z,30.60
2018-04-01T01:34:48.979Z,30.60
2018-04-01T01:35:49.154Z,29.40
2018-04-01T01:36:49.337Z,28.90
2018-04-01T01:37:49.512Z,28.50
2018-04-01T01:38:49.686Z,28.30
2018-04-01T01:39:49.865Z,30.20
2018-04-01T01:40:50.038Z,29.10
2018-04-01T01:41:50.221Z,29.90
2018-04-01T01:42:50.395Z,30.70
2018-04-01T01:43:50.576Z,28.40
2018-04-01T01:44:50.747Z,28.80
2018-04-01T01:45:50.922Z,28.80
2018-04-01T01:46:51.099Z,28.80
2018-04-01T01:47:51.271Z,35.40
2018-04-01T01:48:51.448Z,37.90
2018-04-01T01:49:51.628Z,36.20
2018-04-01T01:50:51.805Z,37.90
2018-04-01T01:51:51.979Z,42.20
2018-04-01T01:52:52.155Z,43.70
2018-04-01T01:53:52.335Z,42.80
2018-04-01T01:54:52.510Z,42.50
2018-04-01T01:55:52.690Z,44.60
2018-04-01T01:56:52.876Z,43.20
2018-04-01T01:57:53.051Z,42.30
2018-04-01T01:58:53.233Z,40.50
2018-04-01T01:59:53.405Z,39.60
2018-04-01T02:00:53.588Z,38.20
2018-04-01T02:01:53.762Z,34.80
2018-04-01T02:02:53.946Z,33.10
2018-04-01T02:03:54.121Z,31.80
2018-04-01T02:04:54.300Z,30.20
2018-04-01T02:05:54.481Z,32.00
2018-04-01T02:06:54.658Z,30.50
2018-04-01T02:07:54.835Z,29.70
2018-04-01T02:08:55.023Z,29.30
2018-04-01T02:09:55.206Z,30.70
2018-04-01T02:10:55.373Z,30.90
2018-04-01T02:11:55.554Z,30.10
2018-04-01T02:12:55.740Z,31.30
2018-04-01T02:13:55.915Z,30.60
2018-04-01T02:14:56.102Z,33.10
2018-04-01T02:15:56.269Z,30.60
2018-04-01T02:16:56.453Z,31.10
2018-04-01T02:17:56.622Z,33.80
2018-04-01T02:18:56.806Z,31.60
2018-04-01T02:19:56.976Z,32.90
2018-04-01T02:20:57.157Z,33.40
2018-04-01T02:21:57.341Z,33.40
2018-04-01T02:22:57.516Z,34.10
2018-04-01T02:23:57.697Z,34.80
2018-04-01T02:24:57.879Z,34.40
2018-04-01T02:25:58.054Z,33.00
2018-04-01T02:26:58.233Z,34.40
2018-04-01T02:27:58.417Z,33.50
2018-04-01T02:28:58.604Z,31.70
2018-04-01T02:29:59.023Z,32.30
2018-04-01T02:30:59.246Z,33.20
2018-04-01T02:31:59.336Z,33.60
2018-04-01T02:32:59.308Z,33.80
2018-04-01T02:33:59.776Z,33.00
2018-04-01T02:34:59.721Z,31.10
2018-04-01T02:35:59.763Z,31.30
2018-04-01T02:36:59.944Z,31.90
2018-04-01T02:38:00.126Z,31.10
2018-04-01T02:39:00.310Z,31.80
2018-04-01T02:40:00.496Z,30.70
2018-04-01T02:41:00.680Z,32.00
2018-04-01T02:42:00.853Z,34.60
2018-04-01T02:43:01.034Z,34.00
2018-04-01T02:44:01.214Z,33.30
2018-04-01T02:45:01.395Z,31.80
2018-04-01T02:46:01.572Z,31.80
2018-04-01T02:47:01.760Z,32.10
2018-04-01T02:48:01.936Z,32.20
2018-04-01T02:49:02.120Z,32.40
2018-04-01T02:50:02.296Z,32.80
2018-04-01T02:51:02.476Z,33.60
2018-04-01T02:52:02.658Z,31.30
2018-04-01T02:53:02.839Z,32.20
2018-04-01T02:54:03.015Z,32.10
2018-04-01T02:55:03.194Z,34.10
2018-04-01T02:56:03.373Z,35.00
2018-04-01T02:57:03.553Z,38.00
2018-04-01T02:58:03.728Z,37.30
2018-04-01T02:59:03.900Z,37.40
2018-04-01T03:00:04.068Z,37.10
2018-04-01T03:01:04.249Z,36.20
2018-04-01T03:02:04.432Z,35.80
2018-04-01T03:03:04.611Z,34.80
2018-04-01T03:04:04.784Z,35.40
2018-04-01T03:05:04.969Z,36.40
2018-04-01T03:06:05.145Z,35.80
2018-04-01T03:07:05.322Z,36.90
2018-04-01T03:08:05.502Z,35.70
2018-04-01T03:09:05.703Z,35.70
2018-04-01T03:10:05.869Z,36.40
2018-04-01T03:11:06.092Z,38.00
2018-04-01T03:12:06.232Z,37.00
2018-04-01T03:13:06.421Z,37.00
2018-04-01T03:14:06.596Z,36.80
2018-04-01T03:15:06.782Z,35.30
2018-04-01T03:16:06.953Z,35.70
2018-04-01T03:17:07.134Z,34.40
2018-04-01T03:18:07.311Z,36.00
2018-04-01T03:19:07.495Z,34.70
2018-04-01T03:20:07.674Z,35.40
2018-04-01T03:21:07.853Z,35.90
2018-04-01T03:22:08.036Z,38.30
2018-04-01T03:23:08.209Z,36.70
2018-04-01T03:24:08.388Z,35.00
2018-04-01T03:25:08.567Z,36.50
2018-04-01T03:26:08.744Z,35.00
2018-04-01T03:27:08.918Z,37.20
2018-04-01T03:28:09.100Z,37.10
2018-04-01T03:29:09.279Z,36.20
2018-04-01T03:30:09.456Z,36.80
2018-04-01T03:31:09.637Z,36.90
2018-04-01T03:32:09.808Z,37.10
2018-04-01T03:33:09.989Z,37.40
2018-04-01T03:34:10.165Z,38.10
2018-04-01T03:35:10.343Z,35.30
2018-04-01T03:36:10.516Z,36.70
2018-04-01T03:37:10.687Z,35.80
2018-04-01T03:38:10.863Z,36.60
2018-04-01T03:39:11.042Z,36.00
2018-04-01T03:40:11.220Z,35.90
2018-04-01T03:41:11.403Z,35.30
2018-04-01T03:42:11.582Z,35.30
2018-04-01T03:43:11.759Z,37.60
2018-04-01T03:44:11.939Z,37.90
2018-04-01T03:45:12.114Z,36.20
2018-04-01T03:46:12.291Z,35.60
2018-04-01T03:47:12.473Z,36.80
2018-04-01T03:48:12.638Z,36.00
2018-04-01T03:49:12.812Z,36.90
2018-04-01T03:50:12.995Z,36.90
2018-04-01T03:51:13.174Z,35.60
2018-04-01T03:52:13.351Z,36.60
2018-04-01T03:53:13.524Z,35.40
2018-04-01T03:54:13.701Z,36.10
2018-04-01T03:55:13.880Z,34.50
2018-04-01T03:56:14.053Z,34.60
2018-04-01T03:57:14.231Z,34.40
2018-04-01T03:58:14.412Z,36.30
2018-04-01T03:59:14.587Z,35.00
2018-04-01T04:00:14.765Z,35.50
2018-04-01T04:01:14.934Z,36.00
2018-04-01T04:02:15.105Z,38.10
2018-04-01T04:03:15.293Z,37.20
2018-04-01T04:04:15.479Z,38.00
2018-04-01T04:05:15.673Z,35.60
2018-04-01T04:06:15.826Z,35.00
2018-04-01T04:07:15.998Z,33.80
2018-04-01T04:08:16.183Z,31.70
2018-04-01T04:09:16.364Z,33.40
2018-04-01T04:10:16.548Z,33.00
2018-04-01T04:11:16.726Z,32.80
2018-04-01T04:12:16.900Z,33.20
2018-04-01T04:13:17.075Z,32.00
2018-04-01T04:14:17.246Z,31.60
2018-04-01T04:15:17.428Z,31.60
2018-04-01T04:16:17.597Z,32.30
2018-04-01T04:17:17.774Z,32.90
2018-04-01T04:18:17.949Z,32.60
2018-04-01T04:19:18.132Z,32.00
2018-04-01T04:20:18.308Z,31.50
2018-04-01T04:21:18.492Z,30.70
2018-04-01T04:22:18.658Z,30.80
2018-04-01T04:23:18.830Z,30.50
2018-04-01T04:24:19.009Z,31.30
2018-04-01T04:25:19.178Z,32.00
2018-04-01T04:26:19.353Z,32.60
2018-04-01T04:27:19.541Z,32.40
2018-04-01T04:28:19.722Z,32.00
2018-04-01T04:29:19.895Z,32.10
2018-04-01T04:30:20.072Z,32.60
2018-04-01T04:31:20.249Z,33.80
2018-04-01T04:32:20.429Z,33.00
2018-04-01T04:33:20.606Z,34.30
2018-04-01T04:34:20.790Z,33.20
2018-04-01T04:35:20.964Z,33.80
2018-04-01T04:36:21.149Z,34.60
2018-04-01T04:37:21.344Z,35.20
2018-04-01T04:38:21.515Z,34.20
2018-04-01T04:39:21.703Z,34.90
2018-04-01T04:40:21.876Z,34.90
2018-04-01T04:41:22.050Z,33.60
2018-04-01T04:42:22.266Z,35.50
2018-04-01T04:43:22.438Z,35.70
2018-04-01T04:44:22.612Z,34.60
2018-04-01T04:45:22.794Z,34.50
2018-04-01T04:46:22.971Z,34.20
2018-04-01T04:47:23.150Z,34.30
2018-04-01T04:48:23.335Z,35.20
2018-04-01T04:49:23.525Z,34.80
2018-04-01T04:50:23.695Z,35.40
2018-04-01T04:51:25.499Z,35.70
2018-04-01T04:52:24.037Z,35.90
2018-04-01T04:53:24.215Z,34.60
2018-04-01T04:54:24.388Z,34.40
2018-04-01T04:55:24.570Z,33.00
2018-04-01T04:56:24.798Z,31.90
2018-04-01T04:57:24.934Z,33.20
2018-04-01T04:58:25.115Z,32.30
2018-04-01T04:59:25.291Z,34.00
2018-04-01T05:00:25.472Z,33.00
2018-04-01T05:01:25.653Z,31.50
2018-04-01T05:02:25.853Z,32.30
2018-04-01T05:03:26.011Z,30.60
2018-04-01T05:04:26.190Z,30.50
2018-04-01T05:05:26.475Z,30.00
2018-04-01T05:06:26.519Z,30.30
2018-04-01T05:07:26.704Z,30.70
2018-04-01T05:08:26.885Z,31.80
2018-04-01T05:09:27.058Z,30.70
2018-04-01T05:10:27.242Z,29.80
2018-04-01T05:11:27.421Z,31.40
2018-04-01T05:12:27.598Z,30.90
2018-04-01T05:13:27.799Z,31.40
2018-04-01T05:14:27.978Z,30.80
2018-04-01T05:15:28.152Z,31.30
2018-04-01T05:16:28.332Z,32.70
2018-04-01T05:17:28.518Z,32.30
2018-04-01T05:18:28.713Z,32.50
2018-04-01T05:19:28.886Z,33.90
2018-04-01T05:20:29.069Z,35.80
2018-04-01T05:21:29.252Z,32.30
2018-04-01T05:22:29.418Z,32.30
2018-04-01T05:23:29.598Z,35.20
2018-04-01T05:24:29.772Z,36.10
2018-04-01T05:25:29.952Z,35.60
2018-04-01T05:26:30.126Z,35.60
2018-04-01T05:27:30.302Z,35.50
2018-04-01T05:28:30.475Z,34.80
2018-04-01T05:29:30.648Z,36.00
2018-04-01T05:30:30.827Z,34.70
2018-04-01T05:31:31.007Z,35.00
2018-04-01T05:32:31.196Z,34.60
2018-04-01T05:33:31.373Z,35.60
2018-04-01T05:34:31.552Z,34.30
2018-04-01T05:35:31.734Z,35.20
2018-04-01T05:36:31.915Z,36.00
2018-04-01T05:37:32.088Z,34.80
2018-04-01T05:38:32.269Z,34.80
2018-04-01T05:39:32.442Z,34.60
2018-04-01T05:40:32.619Z,34.90
2018-04-01T05:41:32.812Z,35.40
2018-04-01T05:42:33.016Z,35.10
2018-04-01T05:43:33.194Z,34.50
2018-04-01T05:44:33.372Z,35.40
2018-04-01T05:45:33.551Z,34.70
2018-04-01T05:46:33.731Z,33.90
2018-04-01T05:47:33.908Z,34.80
2018-04-01T05:48:34.150Z,35.20
2018-04-01T05:49:34.274Z,33.80
2018-04-01T05:50:34.445Z,34.80
2018-04-01T05:51:34.629Z,35.50
2018-04-01T05:52:34.808Z,35.00
2018-04-01T05:53:34.993Z,35.20
2018-04-01T05:54:35.170Z,35.60
2018-04-01T05:55:35.347Z,35.90
2018-04-01T05:56:35.524Z,35.90
2018-04-01T05:57:35.702Z,36.10
2018-04-01T05:58:35.885Z,34.80
2018-04-01T05:59:36.068Z,35.40
2018-04-01T06:00:36.251Z,34.70
2018-04-01T06:01:36.436Z,35.10
2018-04-01T06:02:36.613Z,34.90
2018-04-01T06:03:36.790Z,34.40
2018-04-01T06:04:36.970Z,37.60
2018-04-01T06:05:37.151Z,36.20
2018-04-01T06:06:37.318Z,34.40
2018-04-01T06:07:37.496Z,35.60
2018-04-01T06:08:37.675Z,36.10
2018-04-01T06:09:37.877Z,35.50
2018-04-01T06:10:38.055Z,35.70
2018-04-01T06:11:38.223Z,35.50
2018-04-01T06:12:38.398Z,35.00
2018-04-01T06:13:38.584Z,34.30
2018-04-01T06:14:38.769Z,34.20
2018-04-01T06:15:38.949Z,34.80
2018-04-01T06:16:39.126Z,34.50
2018-04-01T06:17:39.315Z,34.30
2018-04-01T06:18:39.485Z,32.90
2018-04-01T06:19:39.661Z,33.40
2018-04-01T06:20:39.842Z,32.40
2018-04-01T06:21:40.020Z,31.70
2018-04-01T06:22:40.197Z,30.80
2018-04-01T06:23:40.372Z,31.10
2018-04-01T06:24:40.548Z,31.00
2018-04-01T06:25:40.721Z,31.30
2018-04-01T06:26:41.236Z,31.70
2018-04-01T06:27:41.111Z,31.40
2018-04-01T06:28:41.292Z,31.50
2018-04-01T06:29:41.465Z,32.10
2018-04-01T06:30:41.648Z,30.50
2018-04-01T06:31:41.825Z,31.00
2018-04-01T06:32:42.005Z,30.80
2018-04-01T06:33:42.192Z,30.70
2018-04-01T06:34:42.375Z,29.90
2018-04-01T06:35:42.556Z,29.70
2018-04-01T06:36:42.739Z,29.80
2018-04-01T06:37:42.915Z,29.00
2018-04-01T06:38:43.094Z,28.20
2018-04-01T06:39:43.269Z,29.60
2018-04-01T06:40:43.448Z,30.30
2018-04-01T06:41:43.629Z,29.20
2018-04-01T06:42:43.810Z,29.60
2018-04-01T06:43:43.987Z,30.10
2018-04-01T06:44:44.178Z,30.80
2018-04-01T06:45:44.363Z,32.30
2018-04-01T06:46:44.532Z,33.10
2018-04-01T06:47:44.718Z,32.40
2018-04-01T06:48:44.895Z,33.10
2018-04-01T06:49:45.073Z,32.30
2018-04-01T06:50:45.284Z,32.70
2018-04-01T06:51:45.438Z,33.30
2018-04-01T06:52:45.606Z,32.00
2018-04-01T06:53:45.779Z,31.70
2018-04-01T06:54:45.959Z,31.90
2018-04-01T06:55:46.140Z,32.90
2018-04-01T06:56:46.315Z,32.60
2018-04-01T06:57:46.496Z,32.00
2018-04-01T06:58:46.681Z,33.30
2018-04-01T06:59:46.866Z,31.20
2018-04-01T07:00:47.293Z,29.20
2018-04-01T07:01:47.162Z,27.20
2018-04-01T07:02:47.343Z,28.30
2018-04-01T07:03:47.531Z,28.20
2018-04-01T07:04:47.712Z,28.30
2018-04-01T07:05:47.890Z,29.50
2018-04-01T07:06:48.068Z,28.00
2018-04-01T07:07:48.250Z,26.80
2018-04-01T07:08:48.735Z,27.20
2018-04-01T07:09:48.823Z,25.40
2018-04-01T07:10:48.885Z,24.60
2018-04-01T07:11:48.947Z,23.10
2018-04-01T07:12:49.124Z,22.40
2018-04-01T07:13:49.297Z,21.20
2018-04-01T07:14:49.488Z,21.80
2018-04-01T07:15:49.671Z,21.70
2018-04-01T07:16:49.843Z,20.60
2018-04-01T07:17:50.027Z,22.00
2018-04-01T07:18:50.214Z,21.40
2018-04-01T07:19:50.379Z,21.50
2018-04-01T07:20:50.568Z,21.70
2018-04-01T07:21:50.750Z,21.80
2018-04-01T07:22:50.932Z,21.30
2018-04-01T07:23:51.126Z,21.90
2018-04-01T07:24:52.939Z,21.50
2018-04-01T07:25:53.094Z,21.00
2018-04-01T07:26:52.618Z,21.30
2018-04-01T07:27:52.816Z,20.10
2018-04-01T07:28:53.136Z,20.80
2018-04-01T07:29:53.799Z,20.90
2018-04-01T07:30:54.091Z,20.10
2018-04-01T07:31:53.969Z,19.80
2018-04-01T07:32:53.887Z,18.90
2018-04-01T07:33:55.832Z,18.20
2018-04-01T07:34:54.240Z,18.40
2018-04-01T07:35:54.964Z,18.50
2018-04-01T07:36:54.462Z,18.30
2018-04-01T07:37:54.270Z,17.50
2018-04-01T07:38:55.143Z,17.40
2018-04-01T07:39:55.919Z,17.60
2018-04-01T07:40:55.459Z,15.70
2018-04-01T07:41:55.142Z,15.60
2018-04-01T07:42:55.023Z,14.80
2018-04-01T07:43:55.993Z,16.00
2018-04-01T07:44:54.873Z,16.30
2018-04-01T07:45:55.637Z,16.40
2018-04-01T07:46:55.893Z,15.20
2018-04-01T07:47:56.395Z,14.90
2018-04-01T07:48:57.552Z,14.80
2018-04-01T07:49:55.588Z,14.90
2018-04-01T07:50:55.757Z,15.30
2018-04-01T07:51:55.945Z,15.70
2018-04-01T07:52:57.076Z,16.50
2018-04-01T07:53:56.227Z,17.00
2018-04-01T07:54:56.417Z,16.80
2018-04-01T07:55:56.631Z,17.80
2018-04-01T07:56:56.810Z,17.20
2018-04-01T07:57:56.978Z,16.90
2018-04-01T07:58:57.171Z,16.80
2018-04-01T07:59:57.440Z,17.20
2018-04-01T08:00:57.563Z,17.60
2018-04-01T08:01:57.748Z,17.30
2018-04-01T08:02:57.937Z,17.50
2018-04-01T08:03:58.112Z,17.10
2018-04-01T08:04:58.295Z,17.50
2018-04-01T08:05:58.470Z,17.60
2018-04-01T08:06:58.655Z,17.80
2018-04-01T08:07:58.868Z,18.20
2018-04-01T08:08:59.051Z,17.70
2018-04-01T08:09:59.232Z,18.50
2018-04-01T08:10:59.531Z,18.60
2018-04-01T08:11:59.538Z,18.10
2018-04-01T08:12:59.954Z,17.90
2018-04-01T08:13:59.962Z,18.10
2018-04-01T08:15:00.267Z,17.40
2018-04-01T08:16:00.400Z,18.40
2018-04-01T08:17:00.647Z,17.60
2018-04-01T08:18:00.654Z,18.10
2018-04-01T08:19:00.841Z,17.80
2018-04-01T08:20:01.328Z,18.30
2018-04-01T08:21:01.533Z,17.60
2018-04-01T08:22:01.461Z,18.10
2018-04-01T08:23:01.476Z,18.10
2018-04-01T08:24:01.681Z,16.50
2018-04-01T08:25:01.952Z,18.20
2018-04-01T08:26:02.013Z,17.40
2018-04-01T08:27:02.200Z,17.70
2018-04-01T08:28:02.385Z,18.20
2018-04-01T08:29:02.571Z,18.30
2018-04-01T08:30:02.749Z,18.60
2018-04-01T08:31:02.941Z,17.10
2018-04-01T08:32:03.234Z,18.20
2018-04-01T08:33:03.288Z,18.80
2018-04-01T08:34:03.482Z,18.60
2018-04-01T08:35:03.668Z,18.30
2018-04-01T08:36:03.875Z,18.60
2018-04-01T08:37:04.073Z,18.80
2018-04-01T08:38:04.246Z,17.50
2018-04-01T08:39:04.428Z,18.40
2018-04-01T08:40:07.610Z,18.40
2018-04-01T08:41:05.810Z,18.20
2018-04-01T08:42:07.056Z,17.90
2018-04-01T08:43:05.080Z,17.60
2018-04-01T08:44:05.227Z,17.90
2018-04-01T08:45:05.435Z,17.10
2018-04-01T08:46:05.640Z,16.30
2018-04-01T08:47:05.836Z,16.80
2018-04-01T08:48:06.017Z,17.30
2018-04-01T08:49:06.202Z,16.60
2018-04-01T08:50:06.377Z,16.00
2018-04-01T08:51:06.559Z,16.40
2018-04-01T08:52:06.756Z,16.30
2018-04-01T08:53:06.944Z,16.40
2018-04-01T08:54:07.117Z,16.80
2018-04-01T08:55:07.416Z,17.30
2018-04-01T08:56:07.454Z,16.10
2018-04-01T08:57:07.638Z,17.10
2018-04-01T08:58:07.818Z,16.40
2018-04-01T08:59:08.003Z,17.10
2018-04-01T09:00:08.182Z,17.20
2018-04-01T09:01:08.353Z,16.50
2018-04-01T09:02:08.531Z,17.10
2018-04-01T09:03:08.727Z,16.00
2018-04-01T09:04:08.901Z,16.20
2018-04-01T09:05:09.086Z,16.00
2018-04-01T09:06:09.258Z,15.70
2018-04-01T09:07:09.435Z,15.50
2018-04-01T09:08:09.614Z,16.20
2018-04-01T09:09:09.793Z,15.00
2018-04-01T09:10:09.973Z,14.20
2018-04-01T09:11:10.154Z,14.00
2018-04-01T09:12:13.932Z,13.20
2018-04-01T09:13:11.126Z,13.70
2018-04-01T09:14:10.685Z,13.50
2018-04-01T09:15:10.860Z,12.40
2018-04-01T09:16:11.046Z,12.20
2018-04-01T09:17:11.223Z,11.60
2018-04-01T09:18:11.427Z,11.30
2018-04-01T09:19:11.609Z,10.70
2018-04-01T09:20:11.802Z,10.80
2018-04-01T09:21:11.990Z,10.20
2018-04-01T09:22:12.227Z,10.80
2018-04-01T09:23:12.349Z,11.00
2018-04-01T09:24:19.171Z,9.90
2018-04-01T09:25:12.782Z,9.60
2018-04-01T09:26:12.957Z,9.60
2018-04-01T09:27:13.152Z,9.20
2018-04-01T09:28:16.219Z,9.40
2018-04-01T09:29:16.292Z,9.50
2018-04-01T09:30:15.772Z,9.30
2018-04-01T09:31:19.305Z,9.40
2018-04-01T09:32:15.583Z,9.10
2018-04-01T09:33:16.251Z,9.30
2018-04-01T09:34:16.425Z,9.20
2018-04-01T09:35:16.387Z,9.00
2018-04-01T09:36:16.027Z,9.10
2018-04-01T09:37:18.935Z,10.50
2018-04-01T09:38:15.884Z,11.20
2018-04-01T09:39:16.143Z,11.80
2018-04-01T09:40:16.910Z,10.40
2018-04-01T09:41:18.388Z,9.20
2018-04-01T09:42:17.494Z,9.00
2018-04-01T09:43:19.200Z,9.50
2018-04-01T09:44:16.818Z,9.40
2018-04-01T09:45:16.207Z,8.70
2018-04-01T09:46:16.024Z,8.80
2018-04-01T09:47:16.199Z,8.80
2018-04-01T09:48:16.388Z,9.70
2018-04-01T09:49:16.593Z,8.70
2018-04-01T09:50:16.809Z,9.90
2018-04-01T09:51:16.954Z,9.40
2018-04-01T09:52:17.136Z,9.20
2018-04-01T09:53:17.323Z,8.90
2018-04-01T09:54:17.507Z,8.20
2018-04-01T09:55:17.697Z,9.10
2018-04-01T09:56:17.881Z,8.60
2018-04-01T09:57:18.058Z,9.00
2018-04-01T09:58:21.964Z,9.40
2018-04-01T09:59:18.406Z,9.60
2018-04-01T10:00:18.591Z,9.70
2018-04-01T10:01:18.776Z,9.30
2018-04-01T10:02:18.952Z,9.70
2018-04-01T10:03:19.134Z,9.80
2018-04-01T10:04:19.316Z,9.90
2018-04-01T10:05:19.497Z,9.80
2018-04-01T10:06:19.676Z,9.60
2018-04-01T10:07:19.857Z,9.40
2018-04-01T10:08:20.041Z,9.60
2018-04-01T10:09:20.214Z,9.60
2018-04-01T10:10:20.397Z,9.30
2018-04-01T10:11:20.572Z,9.10
2018-04-01T10:12:20.751Z,9.80
2018-04-01T10:13:20.930Z,10.40
2018-04-01T10:14:21.107Z,10.60
2018-04-01T10:15:21.277Z,10.20
2018-04-01T10:16:21.450Z,9.80
2018-04-01T10:17:21.624Z,10.00
2018-04-01T10:18:21.805Z,10.20
2018-04-01T10:19:21.994Z,9.80
2018-04-01T10:20:22.167Z,9.30
2018-04-01T10:21:22.346Z,10.50
2018-04-01T10:22:22.522Z,10.30
2018-04-01T10:23:22.705Z,10.10
2018-04-01T10:24:22.875Z,9.70
2018-04-01T10:25:23.053Z,10.40
2018-04-01T10:26:23.229Z,10.30
2018-04-01T10:27:23.412Z,10.00
2018-04-01T10:28:23.596Z,10.50
2018-04-01T10:29:23.833Z,10.80
2018-04-01T10:30:23.953Z,10.60
2018-04-01T10:31:24.131Z,11.30
2018-04-01T10:32:24.308Z,11.90
2018-04-01T10:33:24.490Z,11.20
2018-04-01T10:34:24.668Z,11.70
2018-04-01T10:35:24.840Z,10.70
2018-04-01T10:36:25.015Z,9.80
2018-04-01T10:37:25.198Z,9.40
2018-04-01T10:38:25.383Z,7.90
2018-04-01T10:39:25.564Z,8.30
2018-04-01T10:40:29.166Z,8.10
2018-04-01T10:41:28.797Z,7.20
2018-04-01T10:42:28.898Z,7.10
2018-04-01T10:43:30.636Z,6.30
2018-04-01T10:44:26.462Z,6.70
2018-04-01T10:45:31.391Z,6.80
2018-04-01T10:46:31.515Z,7.70
2018-04-01T10:47:30.006Z,7.80
2018-04-01T10:48:30.141Z,6.70
2018-04-01T10:49:31.354Z,5.00
2018-04-01T10:50:27.383Z,4.70
2018-04-01T10:51:30.834Z,5.10
2018-04-01T10:52:30.169Z,6.50
2018-04-01T10:53:28.085Z,5.70
2018-04-01T10:54:29.874Z,5.10
2018-04-01T10:55:30.115Z,5.00
2018-04-01T10:56:30.127Z,5.70
2018-04-01T10:57:32.948Z,5.90
2018-04-01T10:58:32.029Z,5.60
2018-04-01T10:59:28.823Z,4.40
2018-04-01T11:00:28.997Z,4.70
2018-04-01T11:01:29.177Z,5.10
2018-04-01T11:02:29.362Z,6.60
2018-04-01T11:03:29.545Z,6.00
2018-04-01T11:04:29.740Z,6.80
2018-04-01T11:05:29.930Z,6.80
2018-04-01T11:06:30.106Z,6.70
2018-04-01T11:07:30.302Z,6.50
2018-04-01T11:08:30.505Z,5.80
2018-04-01T11:09:30.694Z,5.60
2018-04-01T11:10:30.874Z,5.70
2018-04-01T11:11:31.081Z,6.80
2018-04-01T11:12:31.278Z,6.10
2018-04-01T11:13:31.461Z,8.00
2018-04-01T11:14:31.641Z,9.70
2018-04-01T11:15:32.169Z,8.00
2018-04-01T11:16:31.965Z,6.60
2018-04-01T11:17:32.149Z,5.90
2018-04-01T11:18:32.332Z,5.60
2018-04-01T11:19:35.864Z,5.70
2018-04-01T11:20:32.739Z,4.70
2018-04-01T11:21:35.694Z,4.50
2018-04-01T11:22:34.472Z,5.10
2018-04-01T11:23:33.631Z,5.00
2018-04-01T11:24:34.521Z,4.40
2018-04-01T11:25:36.572Z,5.20
2018-04-01T11:26:35.470Z,5.20
2018-04-01T11:27:34.709Z,4.70
2018-04-01T11:28:35.313Z,4.90
2018-04-01T11:29:34.964Z,5.00
2018-04-01T11:30:38.839Z,5.30
2018-04-01T11:31:36.732Z,6.00
2018-04-01T11:32:38.079Z,5.10
2018-04-01T11:33:35.566Z,5.20
2018-04-01T11:34:39.267Z,5.10
2018-04-01T11:35:36.041Z,5.60
2018-04-01T11:36:36.600Z,5.20
2018-04-01T11:37:38.136Z,5.60
2018-04-01T11:38:36.521Z,5.00
2018-04-01T11:39:37.479Z,5.10
2018-04-01T11:40:35.944Z,4.70
2018-04-01T11:41:37.171Z,5.20
2018-04-01T11:42:36.335Z,5.30
2018-04-01T11:43:36.532Z,5.60
2018-04-01T11:44:36.699Z,6.10
2018-04-01T11:45:36.878Z,6.50
2018-04-01T11:46:37.061Z,6.10
2018-04-01T11:47:37.702Z,6.70
2018-04-01T11:48:37.445Z,7.00
2018-04-01T11:49:37.625Z,6.90
2018-04-01T11:50:37.818Z,6.80
2018-04-01T11:51:37.997Z,7.70
2018-04-01T11:52:38.237Z,7.60
2018-04-01T11:53:38.296Z,8.30
2018-04-01T11:54:38.629Z,8.10
2018-04-01T11:55:38.750Z,8.90
2018-04-01T11:56:38.844Z,9.30
2018-04-01T11:57:38.993Z,10.40
2018-04-01T11:58:39.231Z,13.50
2018-04-01T11:59:39.292Z,13.00
2018-04-01T12:00:39.472Z,14.20
2018-04-01T12:01:41.616Z,13.60
2018-04-01T12:02:41.081Z,11.80
2018-04-01T12:03:42.568Z,10.70
2018-04-01T12:04:40.714Z,10.80
2018-04-01T12:05:40.257Z,10.20
2018-04-01T12:06:40.444Z,9.60
2018-04-01T12:07:40.644Z,9.20
2018-04-01T12:08:40.826Z,8.50
2018-04-01T12:09:42.286Z,8.80
2018-04-01T12:10:42.491Z,9.50
2018-04-01T12:11:41.339Z,9.60
2018-04-01T12:12:41.523Z,10.30
2018-04-01T12:13:41.862Z,11.60
2018-04-01T12:14:41.921Z,10.20
2018-04-01T12:15:42.106Z,10.10
2018-04-01T12:16:42.690Z,9.60
2018-04-01T12:17:42.491Z,10.00
2018-04-01T12:18:42.790Z,9.10
2018-04-01T12:19:43.226Z,8.40
2018-04-01T12:20:42.954Z,8.30
2018-04-01T12:21:43.640Z,8.30
2018-04-01T12:22:43.420Z,8.30
2018-04-01T12:23:43.602Z,7.60
2018-04-01T12:24:43.804Z,8.00
2018-04-01T12:25:43.856Z,8.30
2018-04-01T12:26:44.603Z,8.20
2018-04-01T12:27:44.168Z,7.90
2018-04-01T12:28:44.779Z,7.20
2018-04-01T12:29:44.465Z,7.00
2018-04-01T12:30:44.715Z,6.90
2018-04-01T12:31:44.774Z,7.20
2018-04-01T12:32:44.967Z,6.50
2018-04-01T12:33:45.166Z,6.60
2018-04-01T12:34:45.342Z,7.10
2018-04-01T12:35:45.601Z,7.20
2018-04-01T12:36:45.658Z,7.30
2018-04-01T12:37:45.836Z,8.00
2018-04-01T12:38:46.060Z,7.90
2018-04-01T12:39:46.194Z,7.50
2018-04-01T12:40:46.379Z,8.40
2018-04-01T12:41:47.919Z,7.70
2018-04-01T12:42:46.744Z,8.60
2018-04-01T12:43:47.213Z,7.90
2018-04-01T12:44:47.136Z,8.70
2018-04-01T12:45:47.317Z,8.90
2018-04-01T12:46:47.515Z,9.80
2018-04-01T12:47:47.776Z,8.90
2018-04-01T12:48:47.839Z,8.90
2018-04-01T12:49:48.022Z,9.20
2018-04-01T12:50:48.196Z,8.90
2018-04-01T12:51:48.375Z,9.30
2018-04-01T12:52:48.974Z,9.10
2018-04-01T12:53:48.779Z,9.50
2018-04-01T12:54:49.008Z,9.50
2018-04-01T12:55:49.093Z,9.60
2018-04-01T12:56:49.236Z,10.10
2018-04-01T12:57:49.418Z,10.00
2018-04-01T12:58:49.614Z,11.20
2018-04-01T12:59:49.784Z,10.30
2018-04-01T13:00:50.005Z,10.00